sensor_id;sensor_type;location;lat;lon;timestamp;temperature;humidity
16970;DHT22;8601;48.718;8.992;2022-10-26T00:01:39;12.10;99.90
16970;DHT22;8601;48.718;8.992;2022-10-26T00:04:06;12.10;99.90
16970;DHT22;8601;48.718;8.992;2022-10-26T00:06:32;12.10;99.90
16970;DHT22;8601;48.718;8.992;2022-10-26T00:08:59;12.10;99.90
16970;DHT22;8601;48.718;8.992;2022-10-26T00:11:27;12.10;99.90
16970;DHT22;8601;48.718;8.992;2022-10-26T00:13:54;12.10;99.90
16970;DHT22;8601;48.718;8.992;2022-10-26T00:16:23;12.20;99.90
16970;DHT22;8601;48.718;8.992;2022-10-26T00:18:51;12.20;99.90
16970;DHT22;8601;48.718;8.992;2022-10-26T00:21:18;12.20;99.90
16970;DHT22;8601;48.718;8.992;2022-10-26T00:23:45;12.20;99.90
16970;DHT22;8601;48.718;8.992;2022-10-26T00:26:12;12.20;99.90
16970;DHT22;8601;48.718;8.992;2022-10-26T00:28:40;12.20;99.90
16970;DHT22;8601;48.718;8.992;2022-10-26T00:31:11;12.20;99.90
16970;DHT22;8601;48.718;8.992;2022-10-26T00:33:38;12.10;99.90
16970;DHT22;8601;48.718;8.992;2022-10-26T00:36:06;12.10;99.90
16970;DHT22;8601;48.718;8.992;2022-10-26T00:38:34;12.20;99.90
16970;DHT22;8601;48.718;8.992;2022-10-26T00:41:01;12.20;99.90
16970;DHT22;8601;48.718;8.992;2022-10-26T00:43:35;12.10;99.90
16970;DHT22;8601;48.718;8.992;2022-10-26T00:46:07;12.20;99.90
16970;DHT22;8601;48.718;8.992;2022-10-26T00:48:36;12.20;99.90
16970;DHT22;8601;48.718;8.992;2022-10-26T00:51:08;12.30;99.90
16970;DHT22;8601;48.718;8.992;2022-10-26T00:53:38;12.20;99.90
16970;DHT22;8601;48.718;8.992;2022-10-26T00:56:07;12.20;99.90
16970;DHT22;8601;48.718;8.992;2022-10-26T00:58:35;12.20;99.90
16970;DHT22;8601;48.718;8.992;2022-10-26T01:01:03;12.20;99.90
16970;DHT22;8601;48.718;8.992;2022-10-26T01:03:31;12.20;99.90
16970;DHT22;8601;48.718;8.992;2022-10-26T01:05:58;12.20;99.90
16970;DHT22;8601;48.718;8.992;2022-10-26T01:08:25;12.20;99.90
16970;DHT22;8601;48.718;8.992;2022-10-26T01:10:53;12.20;99.90
16970;DHT22;8601;48.718;8.992;2022-10-26T01:13:22;12.20;99.90
16970;DHT22;8601;48.718;8.992;2022-10-26T01:15:55;12.20;99.90
16970;DHT22;8601;48.718;8.992;2022-10-26T01:18:36;12.20;99.90
16970;DHT22;8601;48.718;8.992;2022-10-26T01:27:18;12.20;99.90
16970;DHT22;8601;48.718;8.992;2022-10-26T01:30:18;12.30;99.90
16970;DHT22;8601;48.718;8.992;2022-10-26T01:32:55;12.30;99.90
16970;DHT22;8601;48.718;8.992;2022-10-26T01:35:27;12.30;99.90
16970;DHT22;8601;48.718;8.992;2022-10-26T01:38:00;12.30;99.90
16970;DHT22;8601;48.718;8.992;2022-10-26T01:40:33;12.40;99.90
16970;DHT22;8601;48.718;8.992;2022-10-26T01:43:05;12.40;99.90
16970;DHT22;8601;48.718;8.992;2022-10-26T01:45:36;12.40;99.90
16970;DHT22;8601;48.718;8.992;2022-10-26T01:48:06;12.40;99.90
16970;DHT22;8601;48.718;8.992;2022-10-26T01:50:34;12.40;99.90
16970;DHT22;8601;48.718;8.992;2022-10-26T01:53:01;12.40;99.90
16970;DHT22;8601;48.718;8.992;2022-10-26T01:55:45;12.40;99.90
16970;DHT22;8601;48.718;8.992;2022-10-26T01:58:28;12.30;99.90
16970;DHT22;8601;48.718;8.992;2022-10-26T02:01:07;12.30;99.90
16970;DHT22;8601;48.718;8.992;2022-10-26T02:03:43;12.30;99.90
16970;DHT22;8601;48.718;8.992;2022-10-26T02:06:18;12.30;99.90
16970;DHT22;8601;48.718;8.992;2022-10-26T02:08:59;12.30;99.90
16970;DHT22;8601;48.718;8.992;2022-10-26T02:11:35;12.30;99.90
16970;DHT22;8601;48.718;8.992;2022-10-26T02:14:08;12.20;99.90
16970;DHT22;8601;48.718;8.992;2022-10-26T02:16:43;12.20;99.90
16970;DHT22;8601;48.718;8.992;2022-10-26T02:19:24;12.30;99.90
16970;DHT22;8601;48.718;8.992;2022-10-26T02:21:56;12.30;99.90
16970;DHT22;8601;48.718;8.992;2022-10-26T02:24:27;12.20;99.90
16970;DHT22;8601;48.718;8.992;2022-10-26T02:26:55;12.20;99.90
16970;DHT22;8601;48.718;8.992;2022-10-26T02:29:24;12.20;99.90
16970;DHT22;8601;48.718;8.992;2022-10-26T02:31:54;12.30;99.90
16970;DHT22;8601;48.718;8.992;2022-10-26T02:34:24;12.20;99.90
16970;DHT22;8601;48.718;8.992;2022-10-26T02:36:53;12.20;99.90
16970;DHT22;8601;48.718;8.992;2022-10-26T02:39:22;12.30;99.90
16970;DHT22;8601;48.718;8.992;2022-10-26T02:41:52;12.30;99.90
16970;DHT22;8601;48.718;8.992;2022-10-26T02:44:22;12.30;99.90
16970;DHT22;8601;48.718;8.992;2022-10-26T02:46:53;12.30;99.90
16970;DHT22;8601;48.718;8.992;2022-10-26T02:49:24;12.30;99.90
16970;DHT22;8601;48.718;8.992;2022-10-26T02:51:54;12.40;99.90
16970;DHT22;8601;48.718;8.992;2022-10-26T02:54:26;12.30;99.90
16970;DHT22;8601;48.718;8.992;2022-10-26T02:56:57;12.40;99.90
16970;DHT22;8601;48.718;8.992;2022-10-26T02:59:29;12.40;99.90
16970;DHT22;8601;48.718;8.992;2022-10-26T03:01:59;12.40;99.90
16970;DHT22;8601;48.718;8.992;2022-10-26T03:04:28;12.40;99.90
16970;DHT22;8601;48.718;8.992;2022-10-26T03:06:55;12.40;99.90
16970;DHT22;8601;48.718;8.992;2022-10-26T03:09:22;12.40;99.90
16970;DHT22;8601;48.718;8.992;2022-10-26T03:11:49;12.40;99.90
16970;DHT22;8601;48.718;8.992;2022-10-26T03:14:16;12.40;99.90
16970;DHT22;8601;48.718;8.992;2022-10-26T03:16:42;12.40;99.90
16970;DHT22;8601;48.718;8.992;2022-10-26T03:19:11;12.40;99.90
16970;DHT22;8601;48.718;8.992;2022-10-26T03:21:38;12.50;99.90
16970;DHT22;8601;48.718;8.992;2022-10-26T03:24:06;12.50;99.90
16970;DHT22;8601;48.718;8.992;2022-10-26T03:26:34;12.40;99.90
16970;DHT22;8601;48.718;8.992;2022-10-26T03:29:00;12.40;99.90
16970;DHT22;8601;48.718;8.992;2022-10-26T03:31:27;12.40;99.90
16970;DHT22;8601;48.718;8.992;2022-10-26T03:33:54;12.50;99.90
16970;DHT22;8601;48.718;8.992;2022-10-26T03:36:23;12.50;99.90
16970;DHT22;8601;48.718;8.992;2022-10-26T03:38:50;12.50;99.90
16970;DHT22;8601;48.718;8.992;2022-10-26T03:41:17;12.50;99.90
16970;DHT22;8601;48.718;8.992;2022-10-26T03:43:44;12.60;99.90
16970;DHT22;8601;48.718;8.992;2022-10-26T03:46:12;12.60;99.90
16970;DHT22;8601;48.718;8.992;2022-10-26T03:48:39;12.60;99.90
16970;DHT22;8601;48.718;8.992;2022-10-26T03:51:06;12.70;99.90
16970;DHT22;8601;48.718;8.992;2022-10-26T03:53:35;12.80;99.90
16970;DHT22;8601;48.718;8.992;2022-10-26T03:56:02;12.90;99.90
16970;DHT22;8601;48.718;8.992;2022-10-26T03:58:29;12.90;99.90
16970;DHT22;8601;48.718;8.992;2022-10-26T04:00:56;13.00;99.90
16970;DHT22;8601;48.718;8.992;2022-10-26T04:03:23;13.00;99.90
16970;DHT22;8601;48.718;8.992;2022-10-26T04:05:50;13.10;99.90
16970;DHT22;8601;48.718;8.992;2022-10-26T04:08:18;13.10;99.90
16970;DHT22;8601;48.718;8.992;2022-10-26T04:10:47;13.10;99.90
16970;DHT22;8601;48.718;8.992;2022-10-26T04:13:14;13.10;99.90
16970;DHT22;8601;48.718;8.992;2022-10-26T04:15:40;13.00;99.90
16970;DHT22;8601;48.718;8.992;2022-10-26T04:18:08;13.00;99.90
16970;DHT22;8601;48.718;8.992;2022-10-26T04:20:38;13.00;99.90
16970;DHT22;8601;48.718;8.992;2022-10-26T04:23:10;12.90;99.90
16970;DHT22;8601;48.718;8.992;2022-10-26T04:25:37;12.90;99.90
16970;DHT22;8601;48.718;8.992;2022-10-26T04:28:06;12.90;99.90
16970;DHT22;8601;48.718;8.992;2022-10-26T04:30:35;12.90;99.90
16970;DHT22;8601;48.718;8.992;2022-10-26T04:33:06;12.90;99.90
16970;DHT22;8601;48.718;8.992;2022-10-26T04:35:34;13.00;99.90
16970;DHT22;8601;48.718;8.992;2022-10-26T04:38:03;13.00;99.90
16970;DHT22;8601;48.718;8.992;2022-10-26T04:40:31;13.00;99.90
16970;DHT22;8601;48.718;8.992;2022-10-26T04:43:00;13.10;99.90
16970;DHT22;8601;48.718;8.992;2022-10-26T04:45:28;13.10;99.90
16970;DHT22;8601;48.718;8.992;2022-10-26T04:48:02;13.10;99.90
16970;DHT22;8601;48.718;8.992;2022-10-26T04:50:29;13.20;99.90
16970;DHT22;8601;48.718;8.992;2022-10-26T04:52:57;13.10;99.90
16970;DHT22;8601;48.718;8.992;2022-10-26T04:55:24;13.10;99.90
16970;DHT22;8601;48.718;8.992;2022-10-26T04:57:51;13.10;99.90
16970;DHT22;8601;48.718;8.992;2022-10-26T05:00:18;13.10;99.90
16970;DHT22;8601;48.718;8.992;2022-10-26T05:02:46;13.00;99.90
16970;DHT22;8601;48.718;8.992;2022-10-26T05:05:14;13.00;99.90
16970;DHT22;8601;48.718;8.992;2022-10-26T05:07:41;13.00;99.90
16970;DHT22;8601;48.718;8.992;2022-10-26T05:10:08;13.00;99.90
16970;DHT22;8601;48.718;8.992;2022-10-26T05:12:35;12.90;99.90
16970;DHT22;8601;48.718;8.992;2022-10-26T05:15:03;12.90;99.90
16970;DHT22;8601;48.718;8.992;2022-10-26T05:17:30;12.90;99.90
16970;DHT22;8601;48.718;8.992;2022-10-26T05:19:58;12.90;99.90
16970;DHT22;8601;48.718;8.992;2022-10-26T05:22:31;13.00;99.90
16970;DHT22;8601;48.718;8.992;2022-10-26T05:24:58;13.00;99.90
16970;DHT22;8601;48.718;8.992;2022-10-26T05:27:24;13.00;99.90
16970;DHT22;8601;48.718;8.992;2022-10-26T05:29:52;13.00;99.90
16970;DHT22;8601;48.718;8.992;2022-10-26T05:32:19;13.00;99.90
16970;DHT22;8601;48.718;8.992;2022-10-26T05:34:46;13.00;99.90
16970;DHT22;8601;48.718;8.992;2022-10-26T05:37:14;13.00;99.90
16970;DHT22;8601;48.718;8.992;2022-10-26T05:39:41;13.00;99.90
16970;DHT22;8601;48.718;8.992;2022-10-26T05:42:09;13.00;99.90
16970;DHT22;8601;48.718;8.992;2022-10-26T05:44:35;13.00;99.90
16970;DHT22;8601;48.718;8.992;2022-10-26T05:47:02;13.00;99.90
16970;DHT22;8601;48.718;8.992;2022-10-26T05:49:29;13.00;99.90
16970;DHT22;8601;48.718;8.992;2022-10-26T05:51:56;13.00;99.90
16970;DHT22;8601;48.718;8.992;2022-10-26T05:54:25;13.00;99.90
16970;DHT22;8601;48.718;8.992;2022-10-26T05:56:52;13.00;99.90
16970;DHT22;8601;48.718;8.992;2022-10-26T05:59:19;13.10;99.90
16970;DHT22;8601;48.718;8.992;2022-10-26T06:01:54;13.00;99.90
16970;DHT22;8601;48.718;8.992;2022-10-26T06:04:29;13.10;99.90
16970;DHT22;8601;48.718;8.992;2022-10-26T06:07:01;13.00;99.90
16970;DHT22;8601;48.718;8.992;2022-10-26T06:09:30;13.10;99.90
16970;DHT22;8601;48.718;8.992;2022-10-26T06:11:57;13.10;99.90
16970;DHT22;8601;48.718;8.992;2022-10-26T06:14:26;13.10;99.90
16970;DHT22;8601;48.718;8.992;2022-10-26T06:17:03;13.10;99.90
16970;DHT22;8601;48.718;8.992;2022-10-26T06:19:44;13.10;99.90
16970;DHT22;8601;48.718;8.992;2022-10-26T06:22:24;13.00;99.90
16970;DHT22;8601;48.718;8.992;2022-10-26T06:25:03;13.50;99.90
16970;DHT22;8601;48.718;8.992;2022-10-26T06:27:37;14.20;99.90
16970;DHT22;8601;48.718;8.992;2022-10-26T06:30:10;13.80;99.90
16970;DHT22;8601;48.718;8.992;2022-10-26T06:32:39;13.60;99.90
16970;DHT22;8601;48.718;8.992;2022-10-26T06:35:18;13.50;99.90
16970;DHT22;8601;48.718;8.992;2022-10-26T06:37:48;13.40;99.90
16970;DHT22;8601;48.718;8.992;2022-10-26T06:40:17;13.30;99.90
16970;DHT22;8601;48.718;8.992;2022-10-26T06:42:45;13.30;99.90
16970;DHT22;8601;48.718;8.992;2022-10-26T06:45:14;13.20;99.90
16970;DHT22;8601;48.718;8.992;2022-10-26T06:47:48;13.90;99.90
16970;DHT22;8601;48.718;8.992;2022-10-26T06:50:27;14.10;99.90
16970;DHT22;8601;48.718;8.992;2022-10-26T06:53:04;13.90;99.90
16970;DHT22;8601;48.718;8.992;2022-10-26T06:55:39;13.70;99.90
16970;DHT22;8601;48.718;8.992;2022-10-26T06:58:10;13.50;99.90
16970;DHT22;8601;48.718;8.992;2022-10-26T07:00:39;13.50;99.90
16970;DHT22;8601;48.718;8.992;2022-10-26T07:03:06;13.50;99.90
16970;DHT22;8601;48.718;8.992;2022-10-26T07:05:33;13.50;99.90
16970;DHT22;8601;48.718;8.992;2022-10-26T07:08:01;13.50;99.90
16970;DHT22;8601;48.718;8.992;2022-10-26T07:10:27;13.40;99.90
16970;DHT22;8601;48.718;8.992;2022-10-26T07:12:56;13.40;99.90
16970;DHT22;8601;48.718;8.992;2022-10-26T07:15:23;13.60;99.90
16970;DHT22;8601;48.718;8.992;2022-10-26T07:17:50;13.60;99.90
16970;DHT22;8601;48.718;8.992;2022-10-26T07:20:20;13.60;99.90
16970;DHT22;8601;48.718;8.992;2022-10-26T07:22:51;13.60;99.90
16970;DHT22;8601;48.718;8.992;2022-10-26T07:25:18;13.60;99.90
16970;DHT22;8601;48.718;8.992;2022-10-26T07:27:45;13.60;99.90
16970;DHT22;8601;48.718;8.992;2022-10-26T07:30:14;13.60;99.90
16970;DHT22;8601;48.718;8.992;2022-10-26T07:32:41;13.60;99.90
16970;DHT22;8601;48.718;8.992;2022-10-26T07:35:10;13.70;99.90
16970;DHT22;8601;48.718;8.992;2022-10-26T07:37:37;13.70;99.90
16970;DHT22;8601;48.718;8.992;2022-10-26T07:40:05;13.70;99.90
16970;DHT22;8601;48.718;8.992;2022-10-26T07:42:32;13.80;99.90
16970;DHT22;8601;48.718;8.992;2022-10-26T07:45:01;13.80;99.90
16970;DHT22;8601;48.718;8.992;2022-10-26T07:47:30;13.80;99.90
16970;DHT22;8601;48.718;8.992;2022-10-26T07:49:57;13.90;99.90
16970;DHT22;8601;48.718;8.992;2022-10-26T07:52:24;13.90;99.90
16970;DHT22;8601;48.718;8.992;2022-10-26T07:54:50;13.90;99.90
16970;DHT22;8601;48.718;8.992;2022-10-26T07:57:18;13.90;99.90
16970;DHT22;8601;48.718;8.992;2022-10-26T07:59:44;13.90;99.90
16970;DHT22;8601;48.718;8.992;2022-10-26T08:02:12;14.00;99.90
16970;DHT22;8601;48.718;8.992;2022-10-26T08:04:41;14.00;99.90
16970;DHT22;8601;48.718;8.992;2022-10-26T08:07:08;14.00;99.90
16970;DHT22;8601;48.718;8.992;2022-10-26T08:09:35;14.10;99.90
16970;DHT22;8601;48.718;8.992;2022-10-26T08:12:02;14.10;99.90
16970;DHT22;8601;48.718;8.992;2022-10-26T08:14:29;14.10;99.90
16970;DHT22;8601;48.718;8.992;2022-10-26T08:16:56;14.20;99.90
16970;DHT22;8601;48.718;8.992;2022-10-26T08:19:22;14.20;99.90
16970;DHT22;8601;48.718;8.992;2022-10-26T08:21:51;14.20;99.90
16970;DHT22;8601;48.718;8.992;2022-10-26T08:24:17;14.30;99.90
16970;DHT22;8601;48.718;8.992;2022-10-26T08:26:44;14.30;99.90
16970;DHT22;8601;48.718;8.992;2022-10-26T08:29:11;14.40;99.90
16970;DHT22;8601;48.718;8.992;2022-10-26T08:31:38;14.40;99.90
16970;DHT22;8601;48.718;8.992;2022-10-26T08:34:05;14.40;99.90
16970;DHT22;8601;48.718;8.992;2022-10-26T08:36:32;14.50;99.90
16970;DHT22;8601;48.718;8.992;2022-10-26T08:39:00;14.50;99.90
16970;DHT22;8601;48.718;8.992;2022-10-26T08:41:34;14.50;99.90
16970;DHT22;8601;48.718;8.992;2022-10-26T08:44:07;14.60;99.90
16970;DHT22;8601;48.718;8.992;2022-10-26T08:46:40;14.60;99.90
16970;DHT22;8601;48.718;8.992;2022-10-26T08:49:17;14.70;99.90
16970;DHT22;8601;48.718;8.992;2022-10-26T08:51:46;14.70;99.90
16970;DHT22;8601;48.718;8.992;2022-10-26T08:54:22;14.80;99.90
16970;DHT22;8601;48.718;8.992;2022-10-26T08:56:55;14.80;99.90
16970;DHT22;8601;48.718;8.992;2022-10-26T08:59:28;14.90;99.90
16970;DHT22;8601;48.718;8.992;2022-10-26T09:01:56;14.90;99.90
16970;DHT22;8601;48.718;8.992;2022-10-26T09:04:27;15.10;99.90
16970;DHT22;8601;48.718;8.992;2022-10-26T09:07:02;15.40;99.90
16970;DHT22;8601;48.718;8.992;2022-10-26T09:09:40;15.40;99.90
16970;DHT22;8601;48.718;8.992;2022-10-26T09:12:13;15.40;99.90
16970;DHT22;8601;48.718;8.992;2022-10-26T09:14:49;15.40;99.90
16970;DHT22;8601;48.718;8.992;2022-10-26T09:17:29;15.40;99.90
16970;DHT22;8601;48.718;8.992;2022-10-26T09:20:08;15.40;99.90
16970;DHT22;8601;48.718;8.992;2022-10-26T09:22:44;15.50;99.90
16970;DHT22;8601;48.718;8.992;2022-10-26T09:25:18;15.70;99.90
16970;DHT22;8601;48.718;8.992;2022-10-26T09:27:48;16.20;99.90
16970;DHT22;8601;48.718;8.992;2022-10-26T09:30:17;16.40;99.90
16970;DHT22;8601;48.718;8.992;2022-10-26T09:32:46;16.60;99.90
16970;DHT22;8601;48.718;8.992;2022-10-26T09:35:17;16.70;99.90
16970;DHT22;8601;48.718;8.992;2022-10-26T09:37:48;17.00;99.90
16970;DHT22;8601;48.718;8.992;2022-10-26T09:40:23;17.20;99.90
16970;DHT22;8601;48.718;8.992;2022-10-26T09:42:56;17.30;99.90
16970;DHT22;8601;48.718;8.992;2022-10-26T09:45:28;17.10;99.90
16970;DHT22;8601;48.718;8.992;2022-10-26T09:48:00;17.00;99.90
16970;DHT22;8601;48.718;8.992;2022-10-26T09:50:33;17.00;99.90
16970;DHT22;8601;48.718;8.992;2022-10-26T09:53:00;16.80;99.90
16970;DHT22;8601;48.718;8.992;2022-10-26T09:55:30;16.80;99.90
16970;DHT22;8601;48.718;8.992;2022-10-26T09:58:01;16.70;99.90
16970;DHT22;8601;48.718;8.992;2022-10-26T10:00:29;16.70;99.90
16970;DHT22;8601;48.718;8.992;2022-10-26T10:02:57;16.70;99.90
16970;DHT22;8601;48.718;8.992;2022-10-26T10:05:26;16.70;99.90
16970;DHT22;8601;48.718;8.992;2022-10-26T10:08:12;17.00;99.90
16970;DHT22;8601;48.718;8.992;2022-10-26T10:10:53;17.60;99.90
16970;DHT22;8601;48.718;8.992;2022-10-26T10:13:21;18.20;99.90
16970;DHT22;8601;48.718;8.992;2022-10-26T10:15:53;18.60;99.90
16970;DHT22;8601;48.718;8.992;2022-10-26T10:18:22;19.00;99.90
16970;DHT22;8601;48.718;8.992;2022-10-26T10:20:51;19.20;99.90
16970;DHT22;8601;48.718;8.992;2022-10-26T10:23:28;19.20;99.90
16970;DHT22;8601;48.718;8.992;2022-10-26T10:26:02;19.20;99.90
16970;DHT22;8601;48.718;8.992;2022-10-26T10:28:29;18.90;99.90
16970;DHT22;8601;48.718;8.992;2022-10-26T10:30:59;18.70;99.90
16970;DHT22;8601;48.718;8.992;2022-10-26T10:33:34;18.60;99.90
16970;DHT22;8601;48.718;8.992;2022-10-26T10:36:04;18.60;99.90
16970;DHT22;8601;48.718;8.992;2022-10-26T10:38:36;18.50;99.90
16970;DHT22;8601;48.718;8.992;2022-10-26T10:41:24;18.60;99.90
16970;DHT22;8601;48.718;8.992;2022-10-26T10:43:53;18.60;99.90
16970;DHT22;8601;48.718;8.992;2022-10-26T10:46:23;18.90;99.90
16970;DHT22;8601;48.718;8.992;2022-10-26T10:48:55;18.90;99.90
16970;DHT22;8601;48.718;8.992;2022-10-26T10:51:27;18.80;99.90
16970;DHT22;8601;48.718;8.992;2022-10-26T10:53:56;18.70;99.90
16970;DHT22;8601;48.718;8.992;2022-10-26T10:56:39;18.80;99.90
16970;DHT22;8601;48.718;8.992;2022-10-26T10:59:19;18.70;99.90
16970;DHT22;8601;48.718;8.992;2022-10-26T11:01:52;18.60;99.90
16970;DHT22;8601;48.718;8.992;2022-10-26T11:07:20;18.70;99.90
16970;DHT22;8601;48.718;8.992;2022-10-26T11:09:48;18.70;99.90
16970;DHT22;8601;48.718;8.992;2022-10-26T11:12:22;18.70;99.90
16970;DHT22;8601;48.718;8.992;2022-10-26T11:14:54;18.70;99.90
16970;DHT22;8601;48.718;8.992;2022-10-26T11:17:25;18.80;99.90
16970;DHT22;8601;48.718;8.992;2022-10-26T11:19:56;18.80;99.90
16970;DHT22;8601;48.718;8.992;2022-10-26T11:22:28;18.90;99.90
16970;DHT22;8601;48.718;8.992;2022-10-26T11:24:59;19.00;99.90
16970;DHT22;8601;48.718;8.992;2022-10-26T11:27:33;18.90;99.90
16970;DHT22;8601;48.718;8.992;2022-10-26T11:30:05;19.00;99.90
16970;DHT22;8601;48.718;8.992;2022-10-26T11:32:36;19.10;99.90
16970;DHT22;8601;48.718;8.992;2022-10-26T11:35:12;19.20;99.90
16970;DHT22;8601;48.718;8.992;2022-10-26T11:37:44;19.20;99.90
16970;DHT22;8601;48.718;8.992;2022-10-26T11:40:24;19.20;99.90
16970;DHT22;8601;48.718;8.992;2022-10-26T11:43:02;19.20;99.90
16970;DHT22;8601;48.718;8.992;2022-10-26T11:45:35;19.10;99.90
16970;DHT22;8601;48.718;8.992;2022-10-26T11:48:09;19.20;99.90
16970;DHT22;8601;48.718;8.992;2022-10-26T11:50:42;19.20;99.90
16970;DHT22;8601;48.718;8.992;2022-10-26T11:53:13;19.10;99.90
16970;DHT22;8601;48.718;8.992;2022-10-26T11:55:41;19.10;99.90
16970;DHT22;8601;48.718;8.992;2022-10-26T11:58:13;19.10;99.90
16970;DHT22;8601;48.718;8.992;2022-10-26T12:00:44;19.00;99.90
16970;DHT22;8601;48.718;8.992;2022-10-26T12:03:17;19.00;99.90
16970;DHT22;8601;48.718;8.992;2022-10-26T12:05:48;18.90;99.90
16970;DHT22;8601;48.718;8.992;2022-10-26T12:08:20;18.90;99.90
16970;DHT22;8601;48.718;8.992;2022-10-26T12:10:51;18.90;99.90
16970;DHT22;8601;48.718;8.992;2022-10-26T12:13:26;18.90;99.90
16970;DHT22;8601;48.718;8.992;2022-10-26T12:15:59;18.90;99.90
16970;DHT22;8601;48.718;8.992;2022-10-26T12:18:33;18.90;99.90
16970;DHT22;8601;48.718;8.992;2022-10-26T12:21:04;19.00;99.90
16970;DHT22;8601;48.718;8.992;2022-10-26T12:23:34;18.90;99.90
16970;DHT22;8601;48.718;8.992;2022-10-26T12:29:30;18.90;99.90
16970;DHT22;8601;48.718;8.992;2022-10-26T12:31:57;18.90;99.90
16970;DHT22;8601;48.718;8.992;2022-10-26T12:34:58;18.90;99.90
16970;DHT22;8601;48.718;8.992;2022-10-26T12:37:33;19.00;99.90
16970;DHT22;8601;48.718;8.992;2022-10-26T12:43:34;19.00;99.90
16970;DHT22;8601;48.718;8.992;2022-10-26T12:52:42;19.10;99.90
16970;DHT22;8601;48.718;8.992;2022-10-26T12:55:46;19.10;99.90
16970;DHT22;8601;48.718;8.992;2022-10-26T12:58:43;19.20;99.90
16970;DHT22;8601;48.718;8.992;2022-10-26T13:01:26;19.20;99.90
16970;DHT22;8601;48.718;8.992;2022-10-26T13:04:03;19.40;99.90
16970;DHT22;8601;48.718;8.992;2022-10-26T13:06:46;19.60;99.90
16970;DHT22;8601;48.718;8.992;2022-10-26T13:09:22;19.80;99.90
16970;DHT22;8601;48.718;8.992;2022-10-26T13:11:53;19.80;99.90
16970;DHT22;8601;48.718;8.992;2022-10-26T13:14:22;19.90;99.90
16970;DHT22;8601;48.718;8.992;2022-10-26T13:16:50;19.90;99.90
16970;DHT22;8601;48.718;8.992;2022-10-26T13:19:25;20.00;99.90
16970;DHT22;8601;48.718;8.992;2022-10-26T13:21:53;20.10;99.90
16970;DHT22;8601;48.718;8.992;2022-10-26T13:24:26;20.20;99.90
16970;DHT22;8601;48.718;8.992;2022-10-26T13:27:22;20.40;99.90
16970;DHT22;8601;48.718;8.992;2022-10-26T13:30:18;20.50;99.90
16970;DHT22;8601;48.718;8.992;2022-10-26T13:32:50;20.50;99.90
16970;DHT22;8601;48.718;8.992;2022-10-26T13:35:20;20.50;99.90
16970;DHT22;8601;48.718;8.992;2022-10-26T13:37:50;20.30;99.90
16970;DHT22;8601;48.718;8.992;2022-10-26T13:40:20;20.40;99.90
16970;DHT22;8601;48.718;8.992;2022-10-26T13:42:50;20.30;99.90
16970;DHT22;8601;48.718;8.992;2022-10-26T13:45:22;20.30;99.90
16970;DHT22;8601;48.718;8.992;2022-10-26T13:47:55;20.40;99.90
16970;DHT22;8601;48.718;8.992;2022-10-26T13:50:26;20.40;99.90
16970;DHT22;8601;48.718;8.992;2022-10-26T13:52:56;20.40;99.90
16970;DHT22;8601;48.718;8.992;2022-10-26T13:55:30;20.40;99.80
16970;DHT22;8601;48.718;8.992;2022-10-26T13:58:11;20.40;99.90
16970;DHT22;8601;48.718;8.992;2022-10-26T14:00:59;20.30;99.90
16970;DHT22;8601;48.718;8.992;2022-10-26T14:03:26;20.40;99.90
16970;DHT22;8601;48.718;8.992;2022-10-26T14:05:54;20.40;99.90
16970;DHT22;8601;48.718;8.992;2022-10-26T14:08:22;20.50;99.90
16970;DHT22;8601;48.718;8.992;2022-10-26T14:10:54;20.40;99.90
16970;DHT22;8601;48.718;8.992;2022-10-26T14:13:24;20.50;99.90
16970;DHT22;8601;48.718;8.992;2022-10-26T14:15:52;20.50;99.90
16970;DHT22;8601;48.718;8.992;2022-10-26T14:18:22;20.40;99.90
16970;DHT22;8601;48.718;8.992;2022-10-26T14:20:57;20.40;98.90
16970;DHT22;8601;48.718;8.992;2022-10-26T14:23:33;20.40;99.00
16970;DHT22;8601;48.718;8.992;2022-10-26T14:26:02;20.40;99.70
16970;DHT22;8601;48.718;8.992;2022-10-26T14:28:31;20.40;99.50
16970;DHT22;8601;48.718;8.992;2022-10-26T14:31:11;20.40;99.70
16970;DHT22;8601;48.718;8.992;2022-10-26T14:33:38;20.40;99.70
16970;DHT22;8601;48.718;8.992;2022-10-26T14:36:05;20.40;98.90
16970;DHT22;8601;48.718;8.992;2022-10-26T14:38:40;20.30;99.70
16970;DHT22;8601;48.718;8.992;2022-10-26T14:41:10;20.30;99.40
16970;DHT22;8601;48.718;8.992;2022-10-26T14:43:37;20.30;99.00
16970;DHT22;8601;48.718;8.992;2022-10-26T14:46:05;20.20;99.90
16970;DHT22;8601;48.718;8.992;2022-10-26T14:48:33;20.20;99.20
16970;DHT22;8601;48.718;8.992;2022-10-26T14:51:03;20.20;98.30
16970;DHT22;8601;48.718;8.992;2022-10-26T14:53:36;20.10;99.10
16970;DHT22;8601;48.718;8.992;2022-10-26T14:56:05;20.10;99.00
16970;DHT22;8601;48.718;8.992;2022-10-26T14:58:43;20.10;99.30
16970;DHT22;8601;48.718;8.992;2022-10-26T15:01:15;20.00;97.60
16970;DHT22;8601;48.718;8.992;2022-10-26T15:03:43;20.00;97.90
16970;DHT22;8601;48.718;8.992;2022-10-26T15:06:32;20.00;98.80
16970;DHT22;8601;48.718;8.992;2022-10-26T15:09:01;19.90;99.40
16970;DHT22;8601;48.718;8.992;2022-10-26T15:11:31;19.90;99.50
16970;DHT22;8601;48.718;8.992;2022-10-26T15:14:00;19.90;99.50
16970;DHT22;8601;48.718;8.992;2022-10-26T15:16:29;19.80;99.90
16970;DHT22;8601;48.718;8.992;2022-10-26T15:18:58;19.70;99.90
16970;DHT22;8601;48.718;8.992;2022-10-26T15:21:33;19.70;99.90
16970;DHT22;8601;48.718;8.992;2022-10-26T15:24:02;19.60;99.90
16970;DHT22;8601;48.718;8.992;2022-10-26T15:26:30;19.60;99.90
16970;DHT22;8601;48.718;8.992;2022-10-26T15:28:56;19.40;99.90
16970;DHT22;8601;48.718;8.992;2022-10-26T15:31:28;19.40;99.90
16970;DHT22;8601;48.718;8.992;2022-10-26T15:34:12;19.20;99.90
16970;DHT22;8601;48.718;8.992;2022-10-26T15:36:40;19.20;99.90
16970;DHT22;8601;48.718;8.992;2022-10-26T15:39:08;19.00;99.90
16970;DHT22;8601;48.718;8.992;2022-10-26T15:41:37;18.70;99.90
16970;DHT22;8601;48.718;8.992;2022-10-26T15:44:08;18.40;99.90
16970;DHT22;8601;48.718;8.992;2022-10-26T15:46:39;18.10;99.90
16970;DHT22;8601;48.718;8.992;2022-10-26T15:49:07;17.90;99.90
16970;DHT22;8601;48.718;8.992;2022-10-26T15:51:40;17.90;99.90
16970;DHT22;8601;48.718;8.992;2022-10-26T15:54:08;17.80;99.90
16970;DHT22;8601;48.718;8.992;2022-10-26T15:56:35;17.60;99.90
16970;DHT22;8601;48.718;8.992;2022-10-26T15:59:07;17.40;99.90
16970;DHT22;8601;48.718;8.992;2022-10-26T16:01:38;17.30;99.90
16970;DHT22;8601;48.718;8.992;2022-10-26T16:04:06;17.20;99.90
16970;DHT22;8601;48.718;8.992;2022-10-26T16:06:34;17.10;99.90
16970;DHT22;8601;48.718;8.992;2022-10-26T16:09:05;17.10;99.90
16970;DHT22;8601;48.718;8.992;2022-10-26T16:11:34;17.00;99.90
16970;DHT22;8601;48.718;8.992;2022-10-26T16:14:01;16.90;99.90
16970;DHT22;8601;48.718;8.992;2022-10-26T16:16:27;16.80;99.90
16970;DHT22;8601;48.718;8.992;2022-10-26T16:18:56;16.80;99.90
16970;DHT22;8601;48.718;8.992;2022-10-26T16:21:24;16.70;99.90
16970;DHT22;8601;48.718;8.992;2022-10-26T16:23:54;16.70;99.90
16970;DHT22;8601;48.718;8.992;2022-10-26T16:26:22;16.60;99.90
16970;DHT22;8601;48.718;8.992;2022-10-26T16:28:49;16.50;99.90
16970;DHT22;8601;48.718;8.992;2022-10-26T16:31:18;16.50;99.90